Time;durP1;ratioP1;P1;durP2;ratioP2;P2;SDS_P1;SDS_P2;PMS_P1;PMS_P2;Temp;Humidity;BMP_temperature;BMP_pressure;BME280_temperature;BME280_humidity;BME280_pressure;Samples;Min_cycle;Max_cycle;Signal;HPM_P1;HPM_P2
2021/09/14 00:01:19;;;;;;;1.50;1.00;;;16.40;98.20;;;;;;4973440;28;20505;-79
2021/09/14 00:03:47;;;;;;;1.50;1.00;;;16.40;98.20;;;;;;4986360;28;20950;-78
2021/09/14 00:06:13;;;;;;;1.50;0.90;;;16.40;98.20;;;;;;4970266;28;20481;-79
2021/09/14 00:08:40;;;;;;;1.50;1.00;;;16.40;98.20;;;;;;4983911;28;20533;-79
2021/09/14 00:11:07;;;;;;;1.50;1.10;;;16.40;98.20;;;;;;4973999;28;20474;-79
2021/09/14 00:13:34;;;;;;;1.50;1.00;;;16.40;98.20;;;;;;4982548;28;20468;-78
2021/09/14 00:16:00;;;;;;;1.50;1.07;;;16.30;98.20;;;;;;4974224;28;20462;-79
2021/09/14 00:18:27;;;;;;;1.50;1.00;;;16.30;98.20;;;;;;4983119;28;20863;-79
2021/09/14 00:20:56;;;;;;;1.53;1.00;;;16.30;98.20;;;;;;4973415;28;20486;-79
2021/09/14 00:23:22;;;;;;;1.50;1.00;;;16.30;98.20;;;;;;4979173;28;20457;-79
2021/09/14 00:25:49;;;;;;;1.50;1.00;;;16.30;98.20;;;;;;4972907;28;20466;-79
2021/09/14 00:28:16;;;;;;;1.50;0.90;;;16.30;98.20;;;;;;4981148;28;20512;-79
2021/09/14 00:30:43;;;;;;;1.50;1.00;;;16.30;98.20;;;;;;4982347;28;20469;-79
2021/09/14 00:33:09;;;;;;;1.50;1.00;;;16.30;98.20;;;;;;4971749;28;20489;-78
2021/09/14 00:35:36;;;;;;;1.50;1.20;;;16.20;98.20;;;;;;4982018;28;20496;-79
2021/09/14 00:38:04;;;;;;;1.50;1.00;;;16.20;98.20;;;;;;4969461;28;20509;-79
2021/09/14 00:40:31;;;;;;;1.50;1.00;;;16.20;98.20;;;;;;4983721;28;20486;-79
2021/09/14 00:42:58;;;;;;;1.50;1.00;;;16.20;98.20;;;;;;4971628;28;20494;-80
2021/09/14 00:45:25;;;;;;;1.50;0.93;;;16.20;98.20;;;;;;4972311;28;20470;-79
2021/09/14 00:47:51;;;;;;;1.50;1.00;;;16.20;98.20;;;;;;4971826;28;20482;-79
2021/09/14 00:50:18;;;;;;;1.50;1.00;;;16.20;98.20;;;;;;4968972;28;20462;-79
2021/09/14 00:52:45;;;;;;;1.80;1.53;;;16.20;98.20;;;;;;4968541;28;20556;-79
2021/09/14 00:55:13;;;;;;;1.50;1.00;;;16.20;98.20;;;;;;4976565;28;21062;-79
2021/09/14 00:57:40;;;;;;;1.50;1.00;;;16.10;98.20;;;;;;4971664;28;21016;-80
2021/09/14 01:00:08;;;;;;;1.50;0.90;;;16.10;98.20;;;;;;4969275;28;20495;-80
2021/09/14 01:02:35;;;;;;;1.50;1.00;;;16.10;98.20;;;;;;4967454;28;20532;-79
2021/09/14 01:05:03;;;;;;;1.50;0.90;;;16.10;98.20;;;;;;4978802;28;20472;-79
2021/09/14 01:07:31;;;;;;;1.50;1.00;;;16.10;98.20;;;;;;4972537;28;20486;-80
2021/09/14 01:10:00;;;;;;;1.50;1.00;;;16.10;98.20;;;;;;4969241;28;20871;-79
2021/09/14 01:12:28;;;;;;;1.50;1.00;;;16.00;98.20;;;;;;4963988;28;20477;-79
2021/09/14 01:14:56;;;;;;;1.50;0.90;;;16.00;98.20;;;;;;4971316;28;21005;-77
2021/09/14 01:17:24;;;;;;;1.50;0.90;;;16.00;98.20;;;;;;4965114;28;20486;-79
2021/09/14 01:19:50;;;;;;;1.50;1.00;;;16.00;98.20;;;;;;4971684;28;20483;-79
2021/09/14 01:22:17;;;;;;;1.50;1.00;;;16.00;98.20;;;;;;4963392;28;20570;-79
2021/09/14 01:24:45;;;;;;;1.53;1.00;;;15.90;98.20;;;;;;4981407;28;20469;-79
2021/09/14 01:27:12;;;;;;;1.50;1.00;;;15.90;98.20;;;;;;4971249;28;20486;-79
2021/09/14 01:32:23;;;;;;;1.50;1.00;;;15.90;98.20;;;;;;4964420;28;20516;-79
2021/09/14 01:34:50;;;;;;;1.50;0.90;;;15.90;98.20;;;;;;4977598;28;20839;-79
2021/09/14 01:37:17;;;;;;;1.50;0.90;;;15.90;98.20;;;;;;4964387;28;20561;-78
2021/09/14 01:39:45;;;;;;;1.50;1.00;;;15.80;98.20;;;;;;4974355;28;20505;-78
2021/09/14 01:42:11;;;;;;;1.50;1.00;;;15.80;98.20;;;;;;4968960;28;20504;-78
2021/09/14 01:44:38;;;;;;;1.60;1.10;;;15.80;98.20;;;;;;4973303;28;20462;-79
2021/09/14 01:47:05;;;;;;;1.50;1.00;;;15.70;98.20;;;;;;4962070;28;20482;-79
2021/09/14 01:49:32;;;;;;;1.50;0.93;;;15.70;98.20;;;;;;4969602;28;20492;-79
2021/09/14 01:52:00;;;;;;;1.50;1.00;;;15.70;98.20;;;;;;4973333;28;21011;-79
2021/09/14 01:54:26;;;;;;;1.50;1.00;;;15.60;98.20;;;;;;4978293;28;20490;-78
2021/09/14 01:56:55;;;;;;;1.50;1.00;;;15.60;98.20;;;;;;4971339;28;20489;-79
2021/09/14 01:59:22;;;;;;;1.50;1.00;;;15.60;98.20;;;;;;4982368;28;21287;-79
2021/09/14 02:01:55;;;;;;;1.50;1.00;;;15.50;98.20;;;;;;4975041;28;20508;-79
2021/09/14 02:04:33;;;;;;;1.60;1.10;;;15.50;98.20;;;;;;4977407;28;20473;-79
2021/09/14 02:07:17;;;;;;;1.60;1.20;;;15.50;98.20;;;;;;4973976;28;20540;-79
2021/09/14 02:23:56;;;;;;;1.57;1.00;;;15.40;98.20;;;;;;4938114;28;20555;-79
2021/09/14 02:43:14;;;;;;;1.50;1.00;;;15.10;98.20;;;;;;4946247;28;20474;-78
2021/09/14 02:59:39;;;;;;;1.50;1.00;;;15.00;98.20;;;;;;4900024;29;20478;-78
2021/09/14 03:02:07;;;;;;;1.57;1.00;;;15.00;98.20;;;;;;4890153;29;20493;-79
2021/09/14 03:04:34;;;;;;;1.50;1.00;;;15.00;98.20;;;;;;4934464;28;20474;-80
2021/09/14 03:07:01;;;;;;;1.60;1.10;;;14.90;98.20;;;;;;4969216;28;20488;-79
2021/09/14 03:09:28;;;;;;;1.50;1.00;;;14.90;98.20;;;;;;4976170;28;20552;-78
2021/09/14 03:11:54;;;;;;;1.53;1.00;;;14.90;98.20;;;;;;4966522;28;20516;-80
2021/09/14 03:14:21;;;;;;;1.57;1.00;;;14.90;98.20;;;;;;4976357;28;20461;-79
2021/09/14 03:16:48;;;;;;;1.50;1.00;;;14.90;98.20;;;;;;4968910;28;20482;-79
2021/09/14 03:19:16;;;;;;;1.57;1.00;;;14.90;98.20;;;;;;4978074;28;20484;-79
2021/09/14 03:21:42;;;;;;;1.53;1.07;;;14.90;98.20;;;;;;4970359;28;20492;-80
2021/09/14 03:24:09;;;;;;;1.57;1.00;;;14.90;98.20;;;;;;4977193;28;20468;-79
2021/09/14 03:26:36;;;;;;;1.50;1.00;;;14.90;98.20;;;;;;4968266;28;20888;-79
2021/09/14 03:29:03;;;;;;;1.57;1.10;;;14.90;98.20;;;;;;4979045;28;20486;-80
2021/09/14 03:31:29;;;;;;;1.60;1.10;;;14.90;98.20;;;;;;4969082;28;20481;-81
2021/09/14 03:33:57;;;;;;;1.60;1.10;;;14.90;98.20;;;;;;4980256;28;20465;-79
2021/09/14 03:36:25;;;;;;;1.50;1.00;;;14.90;98.20;;;;;;4965339;28;20493;-79
2021/09/14 03:38:51;;;;;;;1.50;1.00;;;14.90;98.20;;;;;;4979412;28;20832;-80
2021/09/14 03:41:18;;;;;;;1.50;1.00;;;14.90;98.20;;;;;;4969182;28;21020;-81
2021/09/14 03:43:45;;;;;;;1.57;1.00;;;14.90;98.20;;;;;;4979736;28;20454;-80
2021/09/14 03:46:12;;;;;;;1.50;1.00;;;14.90;98.20;;;;;;4968308;28;20478;-81
2021/09/14 03:48:38;;;;;;;1.57;1.10;;;14.90;98.20;;;;;;4974353;28;20492;-80
2021/09/14 03:51:05;;;;;;;1.50;1.00;;;14.90;98.20;;;;;;4967077;28;20458;-80
2021/09/14 03:53:33;;;;;;;1.50;1.00;;;14.90;98.20;;;;;;4976681;28;20837;-81
2021/09/14 03:56:00;;;;;;;1.50;1.00;;;14.90;98.20;;;;;;4968386;28;20460;-81
2021/09/14 03:58:27;;;;;;;1.60;1.07;;;14.80;98.20;;;;;;4977869;28;20481;-80
2021/09/14 04:00:54;;;;;;;1.53;1.00;;;14.80;98.20;;;;;;4970315;28;20541;-81
2021/09/14 04:03:25;;;;;;;1.57;1.00;;;14.80;98.20;;;;;;4975782;28;20469;-79
2021/09/14 04:06:08;;;;;;;1.50;1.00;;;14.80;98.20;;;;;;4963381;28;20617;-80
2021/09/14 04:08:52;;;;;;;1.53;1.10;;;14.80;98.20;;;;;;4971296;28;20481;-79
2021/09/14 04:11:21;;;;;;;1.50;1.00;;;14.80;98.20;;;;;;4969611;28;20462;-79
2021/09/14 04:13:48;;;;;;;1.50;1.10;;;14.70;98.20;;;;;;4979161;28;20454;-79
2021/09/14 04:16:15;;;;;;;1.50;1.00;;;14.70;98.20;;;;;;4966061;28;20478;-78
2021/09/14 04:18:41;;;;;;;1.57;1.00;;;14.70;98.20;;;;;;4973726;28;20484;-78
2021/09/14 04:21:08;;;;;;;1.50;1.00;;;14.70;98.20;;;;;;4966519;28;20480;-79
2021/09/14 04:23:36;;;;;;;1.60;1.07;;;14.70;98.20;;;;;;4977180;28;20487;-79
2021/09/14 04:26:03;;;;;;;1.57;1.00;;;14.70;98.20;;;;;;4967033;28;20468;-79
2021/09/14 04:28:31;;;;;;;1.50;1.00;;;14.70;98.20;;;;;;4975197;28;20516;-79
2021/09/14 04:30:58;;;;;;;1.50;1.00;;;14.70;98.20;;;;;;4950058;28;20462;-79
2021/09/14 04:33:25;;;;;;;1.50;1.00;;;14.70;98.20;;;;;;4969279;28;20466;-80
2021/09/14 04:35:52;;;;;;;1.50;1.00;;;14.70;98.20;;;;;;4962829;28;20470;-79
2021/09/14 04:38:18;;;;;;;1.53;1.03;;;14.70;98.20;;;;;;4954185;28;20485;-79
2021/09/14 04:40:49;;;;;;;1.50;1.00;;;14.70;98.20;;;;;;4973081;28;20494;-80
2021/09/14 04:43:16;;;;;;;1.53;1.10;;;14.70;98.20;;;;;;4945107;28;20501;-79
2021/09/14 04:45:42;;;;;;;1.50;1.10;;;14.70;98.20;;;;;;4970371;28;20509;-79
2021/09/14 04:48:10;;;;;;;1.50;1.00;;;14.70;98.20;;;;;;4969353;28;20478;-80
2021/09/14 04:50:37;;;;;;;1.50;1.00;;;14.70;98.20;;;;;;4971945;28;20502;-79
2021/09/14 04:53:04;;;;;;;1.50;1.00;;;14.70;98.20;;;;;;4954284;28;20481;-80
2021/09/14 04:55:31;;;;;;;1.50;1.00;;;14.70;98.20;;;;;;4972203;28;20470;-80
2021/09/14 05:00:43;;;;;;;1.60;1.00;;;14.70;98.20;;;;;;4967910;28;20584;-79
2021/09/14 05:03:10;;;;;;;1.60;1.10;;;14.70;98.20;;;;;;4960431;28;21388;-79
2021/09/14 05:05:37;;;;;;;1.50;1.00;;;14.70;98.20;;;;;;4968185;28;20474;-79
2021/09/14 05:08:04;;;;;;;1.57;1.00;;;14.80;98.20;;;;;;4952467;28;20482;-81
2021/09/14 05:10:33;;;;;;;1.50;1.00;;;14.70;98.20;;;;;;4974396;28;20462;-80
2021/09/14 05:13:03;;;;;;;1.50;1.00;;;14.70;98.20;;;;;;4962861;28;20490;-79
2021/09/14 05:15:30;;;;;;;1.50;1.00;;;14.70;98.20;;;;;;4973900;28;20549;-79
2021/09/14 05:17:57;;;;;;;1.50;1.00;;;14.70;98.20;;;;;;4961890;28;20477;-79
2021/09/14 05:20:24;;;;;;;1.53;1.10;;;14.70;98.20;;;;;;4974032;28;20840;-79
2021/09/14 05:23:00;;;;;;;1.50;1.10;;;14.80;98.20;;;;;;4962146;28;20477;-79
2021/09/14 05:25:27;;;;;;;1.50;1.00;;;14.80;98.20;;;;;;4972098;28;21009;-79
2021/09/14 05:27:54;;;;;;;1.50;1.03;;;14.80;98.20;;;;;;4960237;28;20478;-78
2021/09/14 05:30:22;;;;;;;1.50;1.00;;;14.90;98.20;;;;;;4973309;28;21122;-80
2021/09/14 05:32:49;;;;;;;1.50;1.00;;;14.90;98.20;;;;;;4964166;28;20498;-80
2021/09/14 05:35:16;;;;;;;1.53;1.00;;;14.90;98.20;;;;;;4977160;28;20470;-80
2021/09/14 05:37:43;;;;;;;1.53;1.10;;;14.90;98.20;;;;;;4964225;28;20545;-80
2021/09/14 05:40:11;;;;;;;1.53;1.10;;;15.00;98.20;;;;;;4978513;28;20501;-80
2021/09/14 05:42:38;;;;;;;1.50;1.00;;;15.00;98.20;;;;;;4966617;28;20492;-80
2021/09/14 05:45:05;;;;;;;1.50;1.00;;;15.00;98.20;;;;;;4965288;28;20606;-80
2021/09/14 05:47:34;;;;;;;1.50;1.00;;;15.10;98.20;;;;;;4958708;28;20976;-79
2021/09/14 05:50:01;;;;;;;1.57;1.00;;;15.10;98.20;;;;;;4958358;28;20483;-79
2021/09/14 05:52:28;;;;;;;1.50;1.00;;;15.20;98.20;;;;;;4959336;28;21035;-78
2021/09/14 05:54:55;;;;;;;1.50;1.00;;;15.30;98.20;;;;;;4975852;28;20545;-78
2021/09/14 05:57:22;;;;;;;1.50;1.00;;;15.30;98.20;;;;;;4963442;28;20997;-78
2021/09/14 05:59:48;;;;;;;1.50;1.00;;;15.40;98.20;;;;;;4975758;28;20560;-78
2021/09/14 06:02:16;;;;;;;1.60;1.10;;;15.50;98.20;;;;;;4965188;28;20509;-79
2021/09/14 06:04:44;;;;;;;1.50;1.03;;;15.50;98.20;;;;;;4965724;28;20818;-80
2021/09/14 06:07:11;;;;;;;1.53;0.90;;;15.70;98.20;;;;;;4961437;28;21184;-79
2021/09/14 06:09:49;;;;;;;1.50;1.00;;;15.80;98.20;;;;;;4978894;28;20487;-78
2021/09/14 06:12:25;;;;;;;3.10;2.90;;;15.90;98.20;;;;;;4964668;28;20505;-78
2021/09/14 06:15:40;;;;;;;1.60;1.00;;;16.10;98.20;;;;;;4981583;28;20465;-79
2021/09/14 06:18:30;;;;;;;1.50;1.00;;;16.30;98.20;;;;;;4972473;28;20548;-80
2021/09/14 06:24:19;;;;;;;1.50;1.00;;;16.50;98.20;;;;;;4942867;29;20482;-80
2021/09/14 06:27:26;;;;;;;1.53;1.00;;;16.50;98.20;;;;;;4929793;29;20484;-80
2021/09/14 06:30:40;;;;;;;1.50;1.00;;;16.50;98.20;;;;;;4903203;29;20507;-80
2021/09/14 06:34:15;;;;;;;1.50;1.00;;;16.60;98.20;;;;;;4900204;29;20519;-79
2021/09/14 06:37:25;;;;;;;1.50;1.00;;;16.70;98.20;;;;;;4898030;29;20514;-79
2021/09/14 06:42:47;;;;;;;1.50;1.00;;;16.90;98.20;;;;;;4968619;28;20553;-79
2021/09/14 06:45:19;;;;;;;1.50;1.00;;;17.00;98.20;;;;;;4973624;28;20477;-80
2021/09/14 06:47:50;;;;;;;1.50;1.00;;;17.10;98.20;;;;;;4976856;28;20486;-78
2021/09/14 06:50:28;;;;;;;1.50;1.00;;;17.20;98.20;;;;;;4981850;28;20514;-79
2021/09/14 06:53:12;;;;;;;1.50;1.00;;;17.20;98.20;;;;;;4970487;28;21144;-78
2021/09/14 06:55:42;;;;;;;1.50;1.00;;;17.20;98.20;;;;;;4982841;28;20550;-80
2021/09/14 06:58:09;;;;;;;1.50;1.00;;;17.30;98.20;;;;;;4976670;28;20557;-80
2021/09/14 07:00:36;;;;;;;1.50;1.00;;;17.50;98.20;;;;;;4978095;28;20466;-80
2021/09/14 07:03:04;;;;;;;1.50;1.00;;;17.60;98.20;;;;;;4969076;28;20485;-79
2021/09/14 07:05:31;;;;;;;1.50;0.90;;;17.70;98.20;;;;;;4974492;28;20494;-80
2021/09/14 07:07:59;;;;;;;1.53;1.00;;;17.80;98.20;;;;;;4963573;28;20489;-79
2021/09/14 07:10:26;;;;;;;1.50;1.00;;;17.90;98.20;;;;;;4976074;28;21165;-79
2021/09/14 07:12:52;;;;;;;1.50;0.90;;;17.90;98.20;;;;;;4963322;28;20502;-78
2021/09/14 07:15:19;;;;;;;1.60;1.30;;;18.00;98.20;;;;;;4965989;28;20661;-79
2021/09/14 07:17:46;;;;;;;1.53;0.90;;;18.10;98.20;;;;;;4965118;28;20490;-78
2021/09/14 07:20:13;;;;;;;1.50;0.90;;;18.20;98.20;;;;;;4974157;28;20705;-78
2021/09/14 07:22:40;;;;;;;1.50;0.97;;;18.30;98.20;;;;;;4966574;28;20493;-79
2021/09/14 07:25:09;;;;;;;1.53;1.00;;;18.40;98.20;;;;;;4975149;28;20474;-79
2021/09/14 07:27:37;;;;;;;1.53;1.00;;;18.50;98.20;;;;;;4970868;28;20499;-80
2021/09/14 07:30:05;;;;;;;1.50;0.90;;;18.70;98.20;;;;;;4976296;28;20516;-78
2021/09/14 07:32:31;;;;;;;1.50;1.00;;;18.80;98.20;;;;;;4967658;28;20478;-79
2021/09/14 07:34:58;;;;;;;1.50;1.00;;;18.80;98.20;;;;;;4977293;28;20468;-79
2021/09/14 07:37:25;;;;;;;1.57;1.00;;;18.80;98.20;;;;;;4966725;28;20812;-80
2021/09/14 07:39:52;;;;;;;1.53;1.00;;;18.80;98.20;;;;;;4967931;28;20566;-78
2021/09/14 07:42:20;;;;;;;1.53;1.00;;;18.90;98.20;;;;;;4959222;28;20481;-79
2021/09/14 07:44:49;;;;;;;1.50;1.00;;;18.80;98.20;;;;;;4976165;28;20782;-80
2021/09/14 07:47:16;;;;;;;1.50;0.90;;;18.90;98.20;;;;;;4965698;28;20482;-80
2021/09/14 07:49:45;;;;;;;1.50;0.97;;;18.90;98.20;;;;;;4978392;28;20500;-80
2021/09/14 07:52:12;;;;;;;1.53;0.90;;;19.00;98.20;;;;;;4967261;28;20486;-79
2021/09/14 07:54:39;;;;;;;1.53;0.90;;;19.10;98.20;;;;;;4975526;28;20462;-80
2021/09/14 07:57:06;;;;;;;1.53;0.90;;;19.20;98.20;;;;;;4955023;28;20794;-80
2021/09/14 07:59:34;;;;;;;1.50;1.00;;;19.30;98.20;;;;;;4971719;28;20867;-79
2021/09/14 08:02:01;;;;;;;2.03;1.83;;;19.40;98.20;;;;;;4966188;28;20486;-80
2021/09/14 08:04:28;;;;;;;1.70;1.10;;;19.50;98.20;;;;;;4974885;28;20538;-80
2021/09/14 08:06:55;;;;;;;1.53;0.90;;;19.70;98.20;;;;;;4966113;28;20478;-80
2021/09/14 08:09:24;;;;;;;1.53;0.90;;;19.80;98.20;;;;;;4978180;28;21103;-79
2021/09/14 08:11:51;;;;;;;1.50;0.90;;;19.90;98.20;;;;;;4963999;28;20542;-80
2021/09/14 08:14:18;;;;;;;1.50;0.90;;;20.00;98.20;;;;;;4975203;28;20470;-80
2021/09/14 08:16:46;;;;;;;1.50;0.90;;;20.10;98.00;;;;;;4963941;28;20517;-80
2021/09/14 08:19:13;;;;;;;1.50;0.90;;;20.30;97.80;;;;;;4977533;28;20486;-78
2021/09/14 08:21:39;;;;;;;1.50;0.90;;;20.50;96.60;;;;;;4970134;28;20498;-78
2021/09/14 08:24:08;;;;;;;1.50;0.90;;;20.60;97.30;;;;;;4980882;28;20450;-80
2021/09/14 08:26:35;;;;;;;1.53;0.90;;;20.90;96.90;;;;;;4965254;28;20505;-80
2021/09/14 08:29:02;;;;;;;1.50;0.90;;;21.10;95.80;;;;;;4977694;28;20762;-80
2021/09/14 08:31:29;;;;;;;1.60;1.00;;;21.20;94.80;;;;;;4970126;28;20497;-78
2021/09/14 08:33:58;;;;;;;1.50;0.90;;;21.20;95.10;;;;;;4980794;28;20470;-77
2021/09/14 08:36:25;;;;;;;1.50;0.90;;;21.30;94.70;;;;;;4966709;28;20474;-79
2021/09/14 08:38:52;;;;;;;1.50;0.90;;;21.40;94.10;;;;;;4977429;28;20485;-78
2021/09/14 08:41:22;;;;;;;1.50;0.93;;;21.50;93.70;;;;;;4966905;28;20478;-79
2021/09/14 08:43:50;;;;;;;1.50;0.90;;;21.60;93.10;;;;;;4976690;28;20518;-76
2021/09/14 08:46:20;;;;;;;1.50;0.90;;;21.80;93.10;;;;;;4965356;28;20493;-78
2021/09/14 08:48:48;;;;;;;1.53;0.90;;;21.70;91.60;;;;;;4978293;28;20572;-78
2021/09/14 08:51:17;;;;;;;1.60;1.20;;;21.70;92.30;;;;;;4968670;28;20478;-78
2021/09/14 08:53:44;;;;;;;1.50;0.90;;;21.80;92.70;;;;;;4976029;28;20468;-78
2021/09/14 08:56:12;;;;;;;1.53;0.90;;;21.90;92.10;;;;;;4961974;28;20492;-78
2021/09/14 08:58:39;;;;;;;1.50;0.90;;;22.10;92.80;;;;;;4971385;28;20957;-77
2021/09/14 09:01:11;;;;;;;1.53;0.90;;;22.20;92.30;;;;;;4965740;28;21210;-78
2021/09/14 09:03:38;;;;;;;1.50;0.90;;;22.30;92.30;;;;;;4976700;28;20549;-77
2021/09/14 09:06:06;;;;;;;1.60;1.10;;;22.60;91.60;;;;;;4963630;28;20478;-78
2021/09/14 09:08:35;;;;;;;1.57;0.90;;;22.70;91.50;;;;;;4973233;28;20505;-76
2021/09/14 09:11:05;;;;;;;1.50;0.90;;;22.90;90.70;;;;;;4963282;28;20462;-79
2021/09/14 09:13:33;;;;;;;1.53;0.90;;;23.10;90.10;;;;;;4972014;28;20454;-79
2021/09/14 09:16:00;;;;;;;1.57;0.90;;;23.20;89.40;;;;;;4968111;28;20467;-79
2021/09/14 09:18:27;;;;;;;1.50;0.90;;;23.40;90.60;;;;;;4971559;28;20569;-77
2021/09/14 09:21:02;;;;;;;1.57;0.93;;;23.50;89.30;;;;;;4966241;28;20466;-77
2021/09/14 09:23:29;;;;;;;1.50;0.90;;;23.70;87.50;;;;;;4963693;28;20477;-78
2021/09/14 09:26:07;;;;;;;1.50;0.93;;;23.80;88.50;;;;;;4968633;28;20462;-79
2021/09/14 09:28:34;;;;;;;1.53;0.90;;;23.90;88.60;;;;;;4972925;28;20478;-77
2021/09/14 09:31:08;;;;;;;1.60;1.00;;;23.90;87.70;;;;;;4970023;28;20454;-77
2021/09/14 09:33:36;;;;;;;2.73;2.53;;;24.00;88.50;;;;;;4976992;28;20462;-78
2021/09/14 09:36:05;;;;;;;1.53;0.90;;;24.10;87.20;;;;;;4965788;28;20486;-78
2021/09/14 09:38:33;;;;;;;1.53;0.90;;;24.20;87.70;;;;;;4978968;28;20474;-75
2021/09/14 09:40:59;;;;;;;1.50;0.90;;;24.20;86.60;;;;;;4966571;28;20498;-78
2021/09/14 09:43:29;;;;;;;1.50;0.90;;;24.20;87.00;;;;;;4974647;28;20488;-77
2021/09/14 09:46:06;;;;;;;1.50;0.90;;;24.20;86.60;;;;;;4964981;28;20480;-78
2021/09/14 09:48:34;;;;;;;1.50;0.80;;;24.20;87.10;;;;;;4970269;28;20520;-78
2021/09/14 09:51:01;;;;;;;1.50;0.90;;;24.30;87.50;;;;;;4962369;28;20524;-80
2021/09/14 09:53:28;;;;;;;1.50;0.90;;;24.30;86.90;;;;;;4978171;28;20470;-77
2021/09/14 09:55:57;;;;;;;1.50;0.90;;;24.40;88.10;;;;;;4964369;28;20480;-77
2021/09/14 09:58:24;;;;;;;1.50;0.90;;;24.60;87.30;;;;;;4975667;28;20494;-76
2021/09/14 10:00:59;;;;;;;1.50;0.90;;;24.70;85.80;;;;;;4963855;28;20481;-78
2021/09/14 10:03:30;;;;;;;1.50;0.90;;;24.50;85.80;;;;;;4971989;28;20516;-79
2021/09/14 10:06:01;;;;;;;1.80;1.10;;;24.50;86.60;;;;;;4965872;28;20550;-78
2021/09/14 10:08:29;;;;;;;1.50;0.90;;;24.60;86.60;;;;;;4975503;28;20489;-78
2021/09/14 10:10:57;;;;;;;1.50;0.90;;;24.70;86.20;;;;;;4967356;28;20496;-78
2021/09/14 10:13:31;;;;;;;1.50;0.90;;;24.70;86.00;;;;;;4968931;28;20542;-79
2021/09/14 10:15:59;;;;;;;1.50;0.90;;;24.80;86.40;;;;;;4965365;28;20470;-79
2021/09/14 10:18:28;;;;;;;1.50;0.90;;;25.00;86.10;;;;;;4972697;28;20520;-79
2021/09/14 10:20:55;;;;;;;1.50;0.90;;;25.20;85.30;;;;;;4967679;28;20466;-78
2021/09/14 10:23:23;;;;;;;1.50;0.90;;;25.40;85.10;;;;;;4966982;28;20489;-78
2021/09/14 10:26:03;;;;;;;1.50;0.80;;;25.40;85.30;;;;;;4967287;28;20478;-79
2021/09/14 10:28:42;;;;;;;1.50;0.90;;;25.50;84.50;;;;;;4974065;28;20544;-78
2021/09/14 10:31:24;;;;;;;1.50;0.80;;;25.70;84.30;;;;;;4969336;28;20531;-78
2021/09/14 10:34:06;;;;;;;1.50;0.90;;;25.80;84.70;;;;;;4979394;28;20472;-79
2021/09/14 10:36:34;;;;;;;1.50;1.00;;;26.10;84.40;;;;;;4968335;28;21141;-78
2021/09/14 10:39:02;;;;;;;1.53;0.90;;;26.10;83.30;;;;;;4976254;28;20483;-78
2021/09/14 10:41:36;;;;;;;1.50;0.90;;;26.10;83.40;;;;;;4968547;28;20818;-77
2021/09/14 10:44:07;;;;;;;1.60;1.00;;;26.30;84.70;;;;;;4974119;28;20489;-77
2021/09/14 10:46:36;;;;;;;1.50;0.87;;;26.30;83.20;;;;;;4967079;28;20629;-78
2021/09/14 10:49:13;;;;;;;1.60;0.90;;;26.40;83.40;;;;;;4966832;28;20485;-79
2021/09/14 10:51:41;;;;;;;1.50;0.80;;;26.50;83.10;;;;;;4967928;28;21061;-77
2021/09/14 10:54:08;;;;;;;1.50;0.80;;;26.50;84.00;;;;;;4973917;28;20513;-77
2021/09/14 10:56:34;;;;;;;1.50;0.80;;;26.50;83.10;;;;;;4962088;28;20492;-77
2021/09/14 10:59:01;;;;;;;1.50;0.90;;;26.50;83.00;;;;;;4969742;28;20570;-77
2021/09/14 11:01:31;;;;;;;1.50;0.90;;;26.40;82.90;;;;;;4964204;28;20485;-77
2021/09/14 11:04:07;;;;;;;1.50;0.87;;;26.30;82.70;;;;;;4971277;28;20492;-77
2021/09/14 11:06:34;;;;;;;1.50;0.90;;;26.20;83.00;;;;;;4964261;28;21211;-76
2021/09/14 11:09:02;;;;;;;1.50;0.80;;;26.00;83.50;;;;;;4973635;28;21056;-78
2021/09/14 11:11:29;;;;;;;1.50;0.80;;;25.90;83.80;;;;;;4948416;28;20581;-77
2021/09/14 11:13:58;;;;;;;1.50;0.90;;;25.80;83.20;;;;;;4969103;28;20469;-75
2021/09/14 11:16:25;;;;;;;1.50;0.87;;;25.70;84.20;;;;;;4973701;28;20488;-76
2021/09/14 11:18:52;;;;;;;1.50;0.90;;;25.80;83.90;;;;;;4971700;28;20573;-77
2021/09/14 11:21:21;;;;;;;1.50;0.80;;;25.80;83.70;;;;;;4981181;28;20487;-78
2021/09/14 11:23:50;;;;;;;1.50;0.80;;;25.90;84.10;;;;;;4971624;28;20861;-77
2021/09/14 11:26:19;;;;;;;1.50;0.90;;;26.00;84.70;;;;;;4963295;28;20505;-76
2021/09/14 11:28:55;;;;;;;1.50;0.90;;;26.20;84.20;;;;;;4962369;28;20478;-77
2021/09/14 11:31:22;;;;;;;1.80;1.10;;;26.30;83.30;;;;;;4950376;28;20480;-77
2021/09/14 11:33:49;;;;;;;1.50;0.80;;;26.40;82.90;;;;;;4972720;28;20461;-78
2021/09/14 11:36:16;;;;;;;1.50;0.90;;;26.60;82.20;;;;;;4960365;28;20478;-78
2021/09/14 11:38:44;;;;;;;1.50;0.90;;;26.70;82.80;;;;;;4962042;28;20482;-77
2021/09/14 11:41:14;;;;;;;1.50;0.80;;;26.80;81.90;;;;;;4951950;28;20484;-77
2021/09/14 11:43:42;;;;;;;1.50;0.90;;;26.80;81.10;;;;;;4971012;28;20497;-77
2021/09/14 11:46:14;;;;;;;1.60;1.00;;;26.80;81.60;;;;;;4963971;28;20501;-77
2021/09/14 11:48:41;;;;;;;1.50;0.90;;;26.90;81.70;;;;;;4967972;28;20489;-79
2021/09/14 11:51:09;;;;;;;1.60;1.33;;;26.90;81.30;;;;;;4962343;28;20514;-77
2021/09/14 11:53:38;;;;;;;1.50;0.80;;;27.00;81.50;;;;;;4970711;28;20721;-78
2021/09/14 11:56:13;;;;;;;1.60;1.10;;;27.10;81.60;;;;;;4961131;28;20473;-78
2021/09/14 11:58:44;;;;;;;1.50;0.80;;;27.10;81.50;;;;;;4966175;28;20498;-78
2021/09/14 12:01:15;;;;;;;1.50;0.90;;;27.10;81.70;;;;;;4958656;28;20485;-78
2021/09/14 12:03:44;;;;;;;1.50;0.90;;;27.10;80.80;;;;;;4959669;28;20500;-78
2021/09/14 12:06:13;;;;;;;1.50;0.90;;;27.10;81.40;;;;;;4960618;28;20560;-77
2021/09/14 12:08:42;;;;;;;1.50;0.80;;;27.10;81.30;;;;;;4969171;28;20485;-78
2021/09/14 12:11:10;;;;;;;1.50;0.90;;;27.10;81.80;;;;;;4957463;28;20478;-77
2021/09/14 12:13:41;;;;;;;1.50;0.83;;;27.10;81.60;;;;;;4964686;28;21330;-77
2021/09/14 12:16:13;;;;;;;1.60;1.10;;;27.00;81.10;;;;;;4959421;28;20495;-77
2021/09/14 12:18:42;;;;;;;1.50;0.80;;;27.00;81.70;;;;;;4973445;28;20513;-79
2021/09/14 12:21:09;;;;;;;1.50;0.90;;;26.90;82.50;;;;;;4961415;28;20591;-78
2021/09/14 12:23:36;;;;;;;1.50;0.80;;;26.80;82.30;;;;;;4971365;28;20489;-78
2021/09/14 12:26:03;;;;;;;1.50;0.90;;;26.80;82.60;;;;;;4960170;28;20479;-78
2021/09/14 12:28:31;;;;;;;1.50;0.90;;;26.80;82.30;;;;;;4971990;28;20620;-78
2021/09/14 12:30:59;;;;;;;1.50;0.90;;;26.80;82.40;;;;;;4963755;28;20500;-78
2021/09/14 12:33:26;;;;;;;1.50;0.80;;;26.80;82.90;;;;;;4972275;28;20554;-78
2021/09/14 12:35:52;;;;;;;1.50;0.80;;;26.70;83.10;;;;;;4960348;28;20568;-79
2021/09/14 12:38:19;;;;;;;1.50;0.83;;;26.80;82.50;;;;;;4970919;28;20477;-79
2021/09/14 12:40:46;;;;;;;1.50;0.80;;;26.80;82.40;;;;;;4968364;28;20995;-78
2021/09/14 12:43:13;;;;;;;1.50;0.90;;;26.80;82.80;;;;;;4973225;28;21030;-77
2021/09/14 12:45:40;;;;;;;1.50;0.90;;;26.70;83.00;;;;;;4971363;28;20471;-78
2021/09/14 12:48:08;;;;;;;3.03;1.57;;;26.80;83.30;;;;;;4959944;28;20557;-77
2021/09/14 12:50:35;;;;;;;1.47;0.80;;;26.80;83.00;;;;;;4974355;28;20462;-77
2021/09/14 12:53:04;;;;;;;1.47;0.80;;;26.70;82.60;;;;;;4960176;28;20520;-77
2021/09/14 12:55:35;;;;;;;1.50;0.80;;;26.60;83.10;;;;;;4969881;28;20488;-76
2021/09/14 12:58:05;;;;;;;1.50;0.90;;;26.50;83.20;;;;;;4956275;28;20481;-76
2021/09/14 13:00:32;;;;;;;1.50;0.90;;;26.50;83.40;;;;;;4971531;28;20464;-76
2021/09/14 13:02:59;;;;;;;1.50;0.90;;;26.50;82.50;;;;;;4956088;28;20490;-76
2021/09/14 13:05:31;;;;;;;1.50;0.80;;;26.40;83.50;;;;;;4968002;28;20499;-77
2021/09/14 13:07:59;;;;;;;1.50;0.83;;;26.40;83.40;;;;;;4957826;28;20497;-79
2021/09/14 13:10:26;;;;;;;1.50;0.90;;;26.40;83.50;;;;;;4972105;28;20512;-78
2021/09/14 13:16:10;;;;;;;1.50;0.80;;;26.40;83.60;;;;;;4959347;28;21036;-79
2021/09/14 13:18:34;;;;;;;1.50;0.90;;;26.50;82.90;;;;;;4965757;28;20492;-76
2021/09/14 13:21:03;;;;;;;3.17;2.20;;;26.50;84.10;;;;;;4957304;28;20853;-76
2021/09/14 13:23:31;;;;;;;1.50;0.87;;;26.60;83.80;;;;;;4957986;28;20489;-77
2021/09/14 13:25:58;;;;;;;1.50;0.90;;;26.80;83.70;;;;;;4955363;28;20501;-76
2021/09/14 13:28:25;;;;;;;1.50;0.90;;;27.00;83.50;;;;;;4968574;28;20508;-77
2021/09/14 13:30:51;;;;;;;1.50;0.80;;;27.10;82.80;;;;;;4957973;28;20488;-79
2021/09/14 13:33:18;;;;;;;1.47;0.90;;;27.20;82.20;;;;;;4970234;28;20557;-77
2021/09/14 13:35:45;;;;;;;1.50;0.90;;;27.30;82.40;;;;;;4968923;28;20491;-77
2021/09/14 13:38:13;;;;;;;1.47;0.80;;;27.40;82.40;;;;;;4942674;28;20479;-77
2021/09/14 13:40:42;;;;;;;1.47;0.80;;;27.40;80.90;;;;;;4968957;28;20813;-78
2021/09/14 13:43:09;;;;;;;1.50;0.80;;;27.30;81.80;;;;;;4953718;28;21054;-78
2021/09/14 13:48:24;;;;;;;1.50;0.80;;;27.10;82.40;;;;;;4945471;28;20484;-78
2021/09/14 13:50:52;;;;;;;1.47;0.80;;;26.90;82.80;;;;;;4958978;28;20509;-78
2021/09/14 13:53:20;;;;;;;1.50;0.80;;;26.80;83.20;;;;;;4974622;28;20458;-78
2021/09/14 13:55:47;;;;;;;1.50;0.80;;;26.70;83.60;;;;;;4967318;28;20462;-80
2021/09/14 13:58:14;;;;;;;1.47;0.80;;;26.60;84.10;;;;;;4968569;28;20887;-77
2021/09/14 14:00:41;;;;;;;1.50;0.90;;;26.60;84.30;;;;;;4967176;28;20482;-78